Ulaanbaatar, Mongolia

6:12 PM ULAST on August 30, 2016 (GMT +0900)
Buyant-Ukhaa | | Change Station

Elev 4364 ft 47.83 °N, 106.78 °E | Updated 12 minutes ago

Scattered Clouds
Scattered Clouds
61 °F
Feels Like 61 °F
N
16
Wind Variable Wind from ESE

Today
High -- | Low -- °F
--% Chance of Precip.
Yesterday
High -- | Low -- °F
Precip. -- in
Pressure 29.92 in
Visibility 6.2 miles
Clouds Scattered Clouds 3000 ft
Scattered Clouds 3300 ft
Dew Point 48 °F
Humidity 63%
Rainfall 0.03 in
Snow Depth Not available.
7:08 AM 8:37 PM
Waning Crescent, 4% visible
METAR ZMUB 300900Z 11007MPS 9999 SCT030CB SCT033 16/09 Q1013 R14140094 TEMPO VRB10G15MPS TSGR SHRA BKN027CB BKN030 RMK QFE653.1 63 MOP
Pressure 29.92 in
Visibility 6.2 miles
Clouds Scattered Clouds 3000 ft
Scattered Clouds 3300 ft
Dew Point 48 °F
Humidity 63%
Rainfall 0.03 in
Snow Depth Not available.
7:08 AM 8:37 PM
Waning Crescent, 4% visible
METAR ZMUB 300900Z 11007MPS 9999 SCT030CB SCT033 16/09 Q1013 R14140094 TEMPO VRB10G15MPS TSGR SHRA BKN027CB BKN030 RMK QFE653.1 63 MOP

10-Day Weather Forecast

No radar image for this location.
×

Almanac

Astronomy

Aug. 30, 2016 Rise Set
Actual Time
Civil Twilight
Nautical Twilight
Astronomical Twilight
Moon
Length of Visible Light
Length of Day
Tomorrow will be .
, % of the Moon is Illuminated

Today's Extremes

Country Highs Country Lows

Community

WunderPhotos

Upload Photos

1,935,795 photos uploaded!

WunderBlog® & News

Nearby

Air Quality

  Air Quality AQ Index Pollutant
Not available.

Snow Depth

Station Depth Elevation

Earthquake Activity

City Distance Mag. Time & Date
Minimum magnitude displayed is 2.5.

Coastal Water Temperatures

Place Temperature

Stations

Nearby Weather Stations

Station Location Temp. Windchill Dew Point Humidity Wind Precip. Elev Updated Type